Time;durP1;ratioP1;P1;durP2;ratioP2;P2;SDS_P1;SDS_P2;PMS_P1;PMS_P2;Temp;Humidity;BMP_temperature;BMP_pressure;BME280_temperature;BME280_humidity;BME280_pressure;Samples;Min_cycle;Max_cycle;Signal;HPM_P1;HPM_P2
2022/11/28 05:57:10;;;;;;;2.13;1.63;;;;;;;15.87;66.48;100902.31;6267709;22;20024;31
2022/11/28 06:41:53;;;;;;;;;;;;;;;;;;;;;
2022/11/28 09:54:50;;;;;;;5.55;4.00;;;;;;;16.48;66.66;101020.78;6240115;23;20052;-86
2022/11/28 10:21:17;;;;;;;5.35;4.30;;;;;;;16.48;66.53;101045.91;6240942;23;20019;-86
2022/11/28 10:27:12;;;;;;;5.72;4.43;;;;;;;16.48;66.50;101040.72;6151015;23;20016;-85
2022/11/28 10:50:46;;;;;;;6.15;4.22;;;;;;;16.51;66.51;101051.97;6121751;23;20021;-85
2022/11/28 11:04:06;;;;;;;6.65;4.43;;;;;;;16.57;66.38;101058.88;6320287;22;20012;-86
2022/11/28 11:10:50;;;;;;;6.60;4.40;;;;;;;16.61;66.18;101058.88;6305534;22;20017;-87
2022/11/28 12:19:17;;;;;;;5.82;4.47;;;;;;;16.64;66.64;101050.22;6318396;22;20010;-85
2022/11/28 12:34:08;;;;;;;8.13;4.45;;;;;;;16.64;66.47;101065.81;6302989;22;20022;-86
2022/11/28 12:40:41;;;;;;;6.95;4.72;;;;;;;16.64;66.53;101071.88;6210469;23;20036;-86
2022/11/28 12:43:45;;;;;;;5.35;3.88;;;;;;;16.66;66.45;101079.66;6188845;22;20005;-84
2022/11/28 12:53:37;;;;;;;5.78;4.30;;;;;;;16.66;66.36;101079.66;6302826;22;20074;-86
2022/11/28 13:40:42;;;;;;;6.40;3.75;;;;;;;16.79;66.45;101101.31;6277043;22;20019;-82
2022/11/28 18:56:25;;;;;;;9.82;7.07;;;;;;;16.82;66.18;101335.25;6289905;22;20007;-82
2022/11/28 19:01:58;;;;;;;8.40;6.45;;;;;;;16.84;66.18;101343.91;6332534;22;20038;-88
2022/11/28 19:11:22;;;;;;;9.68;6.20;;;;;;;16.85;66.17;101351.72;6329885;22;20023;-87
2022/11/28 19:16:52;;;;;;;7.28;6.05;;;;;;;16.86;66.32;101353.44;6331086;22;19910;-88
2022/11/28 19:20:03;;;;;;;10.20;6.00;;;;;;;16.87;66.37;101354.31;6332512;22;20011;-89
2022/11/28 19:22:28;;;;;;;10.73;6.30;;;;;;;16.89;66.54;101356.91;6313460;22;20003;-87
2022/11/28 19:28:54;;;;;;;8.60;6.10;;;;;;;16.93;66.50;101367.31;6322235;22;20022;-83
2022/11/28 19:31:22;;;;;;;8.20;6.03;;;;;;;16.91;66.79;101365.59;6299682;22;19995;-83
2022/11/28 19:33:59;;;;;;;8.60;5.78;;;;;;;16.90;66.58;101369.03;6289818;22;20007;-83
2022/11/28 19:36:25;;;;;;;7.15;6.07;;;;;;;16.89;66.63;101367.31;6326688;22;19995;-83
2022/11/28 19:38:51;;;;;;;8.02;6.15;;;;;;;16.87;67.16;101364.69;6321467;22;20031;-83
2022/11/28 19:41:22;;;;;;;7.60;5.63;;;;;;;16.87;66.88;101362.09;6308456;22;20431;-87
2022/11/28 19:47:30;;;;;;;11.00;6.43;;;;;;;16.87;66.88;101359.50;6334691;22;20022;-86
2022/11/28 19:50:07;;;;;;;7.43;6.05;;;;;;;16.88;66.96;101363.00;6306558;22;20003;-87
2022/11/28 19:55:59;;;;;;;8.95;6.40;;;;;;;16.85;67.08;101366.44;6312056;22;20015;-85
2022/11/28 19:58:30;;;;;;;8.20;6.35;;;;;;;16.85;66.65;101372.50;6261545;23;20024;-84
2022/11/28 20:01:32;;;;;;;8.63;6.10;;;;;;;16.85;66.89;101372.50;6247052;22;20008;-85
2022/11/28 20:04:05;;;;;;;10.02;6.43;;;;;;;16.85;66.84;101382.03;6265264;22;19992;-89
2022/11/28 20:12:15;;;;;;;7.35;6.28;;;;;;;16.85;66.95;101374.22;6249534;22;20019;-83
2022/11/28 20:14:40;;;;;;;8.43;6.43;;;;;;;16.86;67.09;101375.97;6286276;22;20035;-84
2022/11/28 20:17:06;;;;;;;8.45;6.20;;;;;;;16.85;67.14;101384.63;6284506;22;20008;-82
2022/11/28 20:19:31;;;;;;;10.25;6.75;;;;;;;16.84;66.94;101386.34;6285580;22;20012;-83
2022/11/28 20:21:57;;;;;;;7.55;5.90;;;;;;;16.84;67.15;101380.31;6258518;22;20004;-83
2022/11/28 20:24:32;;;;;;;10.40;6.55;;;;;;;16.85;66.98;101397.63;6302294;22;20062;-89
2022/11/28 20:27:43;;;;;;;8.20;6.47;;;;;;;16.83;67.01;101395.03;6314229;22;19983;-87
2022/11/28 20:30:08;;;;;;;;;;;;;;;16.84;66.94;101401.97;6295840;22;20509;-83
2022/11/28 20:37:49;;;;;;;8.15;6.40;;;;;;;16.82;66.98;101408.88;6320605;22;20447;-89
2022/11/28 20:47:19;;;;;;;8.35;6.53;;;;;;;16.83;66.98;101410.63;6334661;22;20010;-90
2022/11/28 20:49:47;;;;;;;9.85;6.70;;;;;;;16.82;66.69;101413.22;6304400;22;20014;-88
2022/11/28 20:52:56;;;;;;;10.32;6.78;;;;;;;16.85;67.03;101415.81;6304617;22;20056;-89
2022/11/28 20:55:34;;;;;;;8.27;6.50;;;;;;;16.83;67.15;101417.53;6331688;22;20068;-87
2022/11/28 20:58:24;;;;;;;8.30;6.72;;;;;;;16.82;66.90;101416.69;6335890;22;20007;-86
2022/11/28 21:04:49;;;;;;;9.50;6.80;;;;;;;16.84;67.02;101427.09;6335622;22;20022;-88
2022/11/28 21:07:15;;;;;;;9.68;6.40;;;;;;;16.82;66.94;101426.22;6306779;22;20063;-88
2022/11/28 21:09:40;;;;;;;8.27;6.30;;;;;;;16.82;67.15;101437.47;6284275;22;20002;-87
2022/11/28 21:12:26;;;;;;;8.88;6.32;;;;;;;16.82;67.00;101434.88;6257825;22;20007;-86
2022/11/28 21:14:54;;;;;;;8.02;6.57;;;;;;;16.82;67.02;101436.63;6336314;22;20026;-87
2022/11/28 21:17:39;;;;;;;8.27;6.30;;;;;;;16.83;66.97;101436.63;6285257;22;19991;-88
2022/11/28 21:20:23;;;;;;;7.88;6.70;;;;;;;16.83;66.97;101440.94;6314311;22;20030;-86
2022/11/28 21:22:49;;;;;;;7.43;6.63;;;;;;;16.82;66.65;101445.28;6270650;22;20014;-82
2022/11/28 21:25:14;;;;;;;10.70;6.88;;;;;;;16.82;66.91;101442.66;6269789;22;20059;-83
2022/11/28 21:27:40;;;;;;;9.70;6.82;;;;;;;16.82;66.96;101449.59;6293759;22;20312;-84
2022/11/28 21:30:08;;;;;;;8.38;6.88;;;;;;;16.82;66.61;101449.59;6297278;22;20015;-84
2022/11/28 21:32:35;;;;;;;8.80;6.68;;;;;;;16.83;66.78;101444.44;6298574;22;19999;-84
2022/11/28 21:35:00;;;;;;;9.13;7.00;;;;;;;16.83;66.94;101452.22;6297774;22;20033;-83
2022/11/28 21:37:26;;;;;;;9.63;6.78;;;;;;;16.83;66.57;101451.34;6300220;22;20019;-84
2022/11/28 21:39:51;;;;;;;9.73;6.95;;;;;;;16.82;66.76;101444.41;6275958;22;20011;-83
2022/11/28 21:42:17;;;;;;;9.88;7.55;;;;;;;16.82;66.79;101452.22;6296624;22;20031;-83
2022/11/28 21:44:42;;;;;;;7.97;6.97;;;;;;;16.82;66.67;101462.59;6272899;22;20034;-82
2022/11/28 21:47:08;;;;;;;9.05;7.22;;;;;;;16.82;66.56;101460.00;6273433;22;20010;-83
2022/11/28 21:49:34;;;;;;;8.93;6.85;;;;;;;16.81;66.69;101461.75;6244376;22;20011;-83
2022/11/28 21:51:59;;;;;;;8.98;6.82;;;;;;;16.82;66.53;101462.59;6296587;22;20004;-83
2022/11/28 21:54:25;;;;;;;10.07;6.93;;;;;;;16.82;66.41;101458.28;6322299;22;20086;-83
2022/11/28 21:56:50;;;;;;;8.02;6.63;;;;;;;16.82;66.30;101470.41;6295666;22;20011;-82
2022/11/28 21:59:15;;;;;;;8.68;7.28;;;;;;;16.82;66.51;101467.81;6263210;22;20017;-81
2022/11/28 22:01:41;;;;;;;8.60;7.00;;;;;;;16.82;66.50;101460.00;6262331;22;20331;-82
2022/11/28 22:04:08;;;;;;;9.10;7.47;;;;;;;16.83;66.69;101466.94;6290901;22;20014;-82
2022/11/28 22:06:33;;;;;;;8.48;7.00;;;;;;;16.82;66.55;101470.41;6289532;22;20478;-82
2022/11/28 22:09:01;;;;;;;9.25;7.70;;;;;;;16.83;66.67;101474.72;6291277;22;20003;-83
2022/11/28 22:11:26;;;;;;;9.40;7.32;;;;;;;16.82;66.54;101476.47;6289858;22;20019;-82
2022/11/28 22:13:52;;;;;;;8.27;7.00;;;;;;;16.82;66.39;101475.59;6263483;22;20014;-82
2022/11/28 22:16:23;;;;;;;9.13;7.30;;;;;;;16.82;66.36;101473.88;6290591;22;20004;-82
2022/11/28 22:18:51;;;;;;;8.85;7.20;;;;;;;16.82;66.52;101476.47;6289491;22;20037;-82
2022/11/28 22:21:17;;;;;;;8.40;6.90;;;;;;;16.81;66.34;101477.34;6316662;22;20030;-83
2022/11/28 22:23:43;;;;;;;9.55;7.40;;;;;;;16.81;66.60;101479.94;6290019;22;20443;-83
2022/11/28 22:26:09;;;;;;;8.85;7.30;;;;;;;16.83;66.41;101479.94;6265989;22;20382;-82
2022/11/28 22:28:36;;;;;;;8.65;7.57;;;;;;;16.85;66.36;101480.81;6291311;22;20049;-81
2022/11/28 22:31:15;;;;;;;10.40;7.68;;;;;;;16.83;66.28;101479.94;6284477;22;20003;-82
2022/11/28 22:33:44;;;;;;;9.07;7.38;;;;;;;16.80;66.32;101485.97;6298801;22;20010;-84
2022/11/28 22:36:16;;;;;;;8.77;7.70;;;;;;;16.79;66.69;101483.38;6289775;22;20034;-83
2022/11/28 22:38:43;;;;;;;7.88;7.07;;;;;;;16.79;66.20;101488.56;6288093;22;20348;-82
2022/11/28 22:41:11;;;;;;;9.80;8.00;;;;;;;16.77;65.96;101479.91;6285203;22;20020;-83
2022/11/28 22:43:37;;;;;;;9.05;7.90;;;;;;;16.77;66.38;101477.28;6292302;22;20015;-83
2022/11/28 22:46:04;;;;;;;8.60;7.40;;;;;;;16.77;66.34;101485.09;6296686;22;20094;-83
2022/11/28 22:48:30;;;;;;;10.50;8.50;;;;;;;16.76;66.44;101491.13;6292102;22;19995;-82
2022/11/28 22:50:56;;;;;;;8.50;7.60;;;;;;;16.75;66.46;101479.88;6295373;22;19999;-85
2022/11/28 22:53:22;;;;;;;10.18;8.02;;;;;;;16.74;66.46;101488.53;6296799;22;20008;-83
2022/11/28 22:55:47;;;;;;;9.45;7.78;;;;;;;16.74;66.56;101483.31;6293937;22;20012;-83
2022/11/28 22:58:12;;;;;;;12.13;8.20;;;;;;;16.75;66.10;101489.41;6261862;22;20003;-83
2022/11/28 23:00:38;;;;;;;9.30;7.88;;;;;;;16.73;66.20;101488.53;6287371;22;20091;-84
2022/11/28 23:03:03;;;;;;;11.07;7.97;;;;;;;16.73;66.23;101491.13;6287775;22;20090;-83
2022/11/28 23:05:29;;;;;;;10.90;8.35;;;;;;;16.73;65.97;101496.34;6260472;22;20015;-83
2022/11/28 23:07:54;;;;;;;11.43;8.15;;;;;;;16.73;66.40;101494.59;6288001;22;20004;-83
2022/11/28 23:10:20;;;;;;;9.75;8.30;;;;;;;16.72;66.29;101487.63;6262278;22;20004;-83
2022/11/28 23:12:45;;;;;;;9.43;8.18;;;;;;;16.72;66.48;101481.59;6288205;22;20000;-83
2022/11/28 23:15:12;;;;;;;10.10;8.45;;;;;;;16.72;66.32;101495.44;6290555;22;20059;-83
2022/11/28 23:17:39;;;;;;;8.73;7.80;;;;;;;16.72;66.05;101495.44;6297609;22;20023;-85
2022/11/28 23:20:06;;;;;;;9.35;8.15;;;;;;;16.71;66.20;101498.06;6250653;22;20023;-83
2022/11/28 23:22:33;;;;;;;8.63;7.65;;;;;;;16.71;66.21;101501.50;6274266;22;20012;-83
2022/11/28 23:24:58;;;;;;;9.63;8.57;;;;;;;16.71;66.10;101498.06;6294759;22;20008;-83
2022/11/28 23:27:24;;;;;;;9.40;7.93;;;;;;;16.71;66.00;101503.25;6290058;22;20316;-83
2022/11/28 23:29:49;;;;;;;11.38;9.20;;;;;;;16.70;65.91;101498.91;6290124;22;20003;-82
2022/11/28 23:32:15;;;;;;;9.75;8.57;;;;;;;16.71;66.24;101495.44;6285074;22;20432;-82
2022/11/28 23:34:40;;;;;;;9.60;8.60;;;;;;;16.70;66.17;101501.50;6287529;22;20004;-83
2022/11/28 23:37:06;;;;;;;9.32;8.32;;;;;;;16.70;66.03;101509.28;6290652;22;20016;-82
2022/11/28 23:39:31;;;;;;;10.10;8.63;;;;;;;16.69;65.96;101508.44;6267210;22;20045;-82
2022/11/28 23:41:58;;;;;;;10.77;8.55;;;;;;;16.70;65.89;101505.00;6266011;22;20077;-82
2022/11/28 23:44:24;;;;;;;9.15;7.85;;;;;;;16.70;65.93;101506.69;6293995;22;20014;-83
2022/11/28 23:46:50;;;;;;;9.15;8.00;;;;;;;16.69;65.98;101508.44;6267500;22;20331;-83
2022/11/28 23:49:15;;;;;;;10.02;8.70;;;;;;;16.69;65.93;101510.16;6267069;22;20007;-82
2022/11/28 23:51:41;;;;;;;9.48;7.80;;;;;;;16.69;65.98;101511.03;6293324;22;20242;-82
2022/11/28 23:54:08;;;;;;;10.10;8.45;;;;;;;16.69;65.95;101507.56;6293154;22;20003;-83
2022/11/28 23:56:53;;;;;;;8.45;7.45;;;;;;;16.66;65.78;101506.69;6336455;22;19996;-85
2022/11/28 23:59:22;;;;;;;9.65;8.23;;;;;;;16.66;65.68;101514.50;6257420;22;19992;-86
